createdAt,value
2023-04-04T00:04:02.460Z,102922.84
2023-04-04T00:22:18.346Z,102907.70
2023-04-04T00:26:53.122Z,102903.83
2023-04-04T00:31:03.300Z,102900.98
2023-04-04T00:35:35.566Z,102901.93
2023-04-04T00:40:04.996Z,102902.34
2023-04-04T00:44:34.854Z,102900.61
2023-04-04T00:49:05.277Z,102899.48
2023-04-04T01:01:58.437Z,102882.98
2023-04-04T01:06:16.381Z,102880.63
2023-04-04T01:10:46.720Z,102879.15
2023-04-04T01:33:46.112Z,102860.72
2023-04-04T01:38:32.803Z,102861.95
2023-04-04T02:04:21.874Z,102847.66
2023-04-04T02:08:45.096Z,102845.83
2023-04-04T02:13:14.111Z,102842.59
2023-04-04T02:17:35.395Z,102839.33
2023-04-04T02:22:04.193Z,102835.91
2023-04-04T02:40:34.152Z,102825.42
2023-04-04T02:45:03.425Z,102827.41
2023-04-04T02:49:32.348Z,102828.26
2023-04-04T02:53:54.509Z,102827.09
2023-04-04T02:58:06.341Z,102820.91
2023-04-04T03:24:14.431Z,102803.00
2023-04-04T03:28:49.098Z,102801.17
2023-04-04T03:54:53.149Z,102770.96
2023-04-04T03:59:22.010Z,102765.70
2023-04-04T04:21:04.058Z,102765.41
2023-04-04T04:25:32.870Z,102757.10
2023-04-04T04:44:51.995Z,102746.10
2023-04-04T04:49:09.885Z,102746.06
2023-04-04T04:53:23.501Z,102744.04
2023-04-04T05:26:16.159Z,102728.50
2023-04-04T05:30:44.188Z,102732.58
2023-04-04T05:35:13.468Z,102734.41
2023-04-04T05:39:42.878Z,102734.73
2023-04-04T05:48:07.679Z,102734.33
2023-04-04T06:04:38.209Z,102735.85
2023-04-04T06:09:08.738Z,102731.42
2023-04-04T06:13:27.061Z,102729.23
2023-04-04T06:17:18.953Z,102728.58
2023-04-04T06:21:20.593Z,102730.27
2023-04-04T06:25:42.522Z,102732.29
2023-04-04T07:26:09.866Z,102713.59
2023-04-04T07:30:38.535Z,102710.35
2023-04-04T07:47:29.549Z,102711.20
2023-04-04T07:51:50.641Z,102706.64
2023-04-04T07:56:19.554Z,102702.26
2023-04-04T08:25:55.707Z,102680.60
2023-04-04T08:29:43.597Z,102678.40
2023-04-04T08:34:12.424Z,102677.58
2023-04-04T08:55:18.493Z,102659.83
2023-04-04T08:59:37.311Z,102657.23
2023-04-04T09:03:59.678Z,102653.39
2023-04-04T09:08:14.476Z,102646.32
2023-04-04T09:12:44.309Z,102652.35
2023-04-04T09:17:05.386Z,102641.54
2023-04-04T09:21:44.364Z,102636.27
2023-04-04T10:04:05.061Z,102616.98
2023-04-04T10:08:29.179Z,102615.21
2023-04-04T10:13:11.394Z,102617.38
2023-04-04T10:17:14.461Z,102612.79
2023-04-04T10:21:16.072Z,102609.58
2023-04-04T10:25:33.906Z,102606.91
2023-04-04T11:08:41.689Z,102553.14
2023-04-04T11:13:13.784Z,102552.93
2023-04-04T11:17:34.851Z,102550.82
2023-04-04T11:21:54.906Z,102550.88
2023-04-04T11:26:33.151Z,102542.95
2023-04-04T11:30:36.402Z,102533.70
2023-04-04T11:56:00.124Z,102518.73
2023-04-04T12:00:11.690Z,102517.10
2023-04-04T12:04:21.767Z,102517.64
2023-04-04T12:08:09.456Z,102514.20
2023-04-04T12:47:03.244Z,102474.89
2023-04-04T12:51:31.760Z,102469.05
2023-04-04T12:56:00.709Z,102466.11
2023-04-04T13:00:19.210Z,102456.56
2023-04-04T13:04:44.303Z,102454.39
2023-04-04T13:09:13.435Z,102443.41
2023-04-04T13:13:34.429Z,102440.88
2023-04-04T13:58:39.875Z,102378.56
2023-04-04T14:03:01.424Z,102375.69
2023-04-04T14:07:01.071Z,102366.19
2023-04-04T14:11:03.337Z,102364.95
2023-04-04T14:47:47.532Z,102353.62
2023-04-04T14:52:05.249Z,102360.21
2023-04-04T14:56:05.555Z,102354.17
2023-04-04T15:00:20.786Z,102348.65
2023-04-04T15:04:38.363Z,102344.75
2023-04-04T15:09:04.874Z,102346.90
2023-04-04T15:12:49.729Z,102348.39
2023-04-04T15:17:12.068Z,102340.89
2023-04-04T15:38:33.760Z,102338.92
2023-04-04T15:42:45.424Z,102332.32
2023-04-04T15:46:45.573Z,102328.50
2023-04-04T15:51:04.722Z,102333.46
2023-04-04T15:55:27.442Z,102337.33
2023-04-04T15:59:12.508Z,102336.95
2023-04-04T16:03:04.623Z,102333.06
2023-04-04T16:07:10.166Z,102330.97
2023-04-04T16:15:10.647Z,102337.20
2023-04-04T16:19:29.454Z,102340.70
2023-04-04T16:44:05.219Z,102336.58
2023-04-04T16:47:36.912Z,102333.52
2023-04-04T16:51:49.065Z,102334.64
2023-04-04T17:12:24.030Z,102321.75
2023-04-04T17:16:35.610Z,102323.21
2023-04-04T17:20:43.764Z,102324.87
2023-04-04T17:24:59.006Z,102325.09
2023-04-04T17:29:20.355Z,102322.68
2023-04-04T17:33:38.365Z,102327.45
2023-04-04T17:56:04.163Z,102333.02
2023-04-04T18:00:33.619Z,102330.05
2023-04-04T18:09:20.353Z,102328.65
2023-04-04T18:13:29.749Z,102333.38
2023-04-04T18:26:25.110Z,102340.55
2023-04-04T18:30:54.174Z,102342.80
2023-04-04T18:47:37.690Z,102350.59
2023-04-04T18:52:08.518Z,102344.26
2023-04-04T19:14:22.482Z,102350.30
2023-04-04T19:18:49.558Z,102346.79
2023-04-04T19:35:56.209Z,102352.23
2023-04-04T19:40:29.314Z,102354.85
2023-04-04T19:45:00.762Z,102349.24
2023-04-04T20:07:18.831Z,102342.52
2023-04-04T20:11:44.335Z,102343.39
2023-04-04T20:22:30.765Z,102333.30
2023-04-04T20:27:06.040Z,102331.23
2023-04-04T20:35:40.444Z,102328.44
2023-04-04T21:01:08.189Z,102311.67
2023-04-04T21:05:39.526Z,102306.95
2023-04-04T21:10:09.405Z,102304.14
2023-04-04T21:36:02.662Z,102295.74
2023-04-04T21:40:25.059Z,102293.13
2023-04-04T21:44:54.031Z,102286.48
2023-04-04T21:49:24.073Z,102284.56
2023-04-04T22:11:35.106Z,102270.02
2023-04-04T22:16:04.955Z,102261.80
2023-04-04T22:37:19.422Z,102246.41
2023-04-04T22:41:48.955Z,102242.73
2023-04-04T22:46:09.771Z,102243.27
2023-04-04T22:50:39.295Z,102240.98
2023-04-04T22:55:05.815Z,102234.34
2023-04-04T22:59:35.847Z,102229.80
2023-04-04T23:17:47.923Z,102228.94
2023-04-04T23:22:17.404Z,102226.66
2023-04-04T23:26:47.858Z,102229.64
2023-04-04T23:48:34.561Z,102213.88
2023-04-04T23:53:04.333Z,102209.88
2023-04-04T23:57:17.362Z,102213.54
